sensor_id;sensor_type;location;lat;lon;timestamp;temperature;humidity
14401;DHT22;7285;50.894;5.462;2023-02-18T00:00:14;10.40;1.00
14401;DHT22;7285;50.894;5.462;2023-02-18T00:02:43;10.40;1.00
14401;DHT22;7285;50.894;5.462;2023-02-18T00:05:10;10.40;1.00
14401;DHT22;7285;50.894;5.462;2023-02-18T00:07:38;10.40;1.00
14401;DHT22;7285;50.894;5.462;2023-02-18T00:10:08;10.40;1.00
14401;DHT22;7285;50.894;5.462;2023-02-18T00:12:36;10.40;1.00
14401;DHT22;7285;50.894;5.462;2023-02-18T00:15:04;10.40;1.00
14401;DHT22;7285;50.894;5.462;2023-02-18T00:17:31;10.40;1.00
14401;DHT22;7285;50.894;5.462;2023-02-18T00:19:58;10.40;1.00
14401;DHT22;7285;50.894;5.462;2023-02-18T00:22:25;10.30;1.00
14401;DHT22;7285;50.894;5.462;2023-02-18T00:24:52;10.40;1.00
14401;DHT22;7285;50.894;5.462;2023-02-18T00:27:19;10.40;1.00
14401;DHT22;7285;50.894;5.462;2023-02-18T00:29:47;10.40;1.00
14401;DHT22;7285;50.894;5.462;2023-02-18T00:32:14;10.40;1.00
14401;DHT22;7285;50.894;5.462;2023-02-18T00:34:41;10.40;1.00
14401;DHT22;7285;50.894;5.462;2023-02-18T00:37:08;10.40;1.00
14401;DHT22;7285;50.894;5.462;2023-02-18T00:39:35;10.40;1.00
14401;DHT22;7285;50.894;5.462;2023-02-18T00:42:03;10.40;1.00
14401;DHT22;7285;50.894;5.462;2023-02-18T00:44:30;10.40;1.00
14401;DHT22;7285;50.894;5.462;2023-02-18T00:46:58;10.40;1.00
14401;DHT22;7285;50.894;5.462;2023-02-18T00:49:25;10.40;1.00
14401;DHT22;7285;50.894;5.462;2023-02-18T00:51:52;10.40;1.00
14401;DHT22;7285;50.894;5.462;2023-02-18T00:54:19;10.50;1.00
14401;DHT22;7285;50.894;5.462;2023-02-18T00:56:46;10.50;1.00
14401;DHT22;7285;50.894;5.462;2023-02-18T00:59:13;10.50;1.00
14401;DHT22;7285;50.894;5.462;2023-02-18T01:01:39;10.50;1.00
14401;DHT22;7285;50.894;5.462;2023-02-18T01:04:08;10.50;1.00
14401;DHT22;7285;50.894;5.462;2023-02-18T01:06:36;10.50;1.00
14401;DHT22;7285;50.894;5.462;2023-02-18T01:09:03;10.50;1.00
14401;DHT22;7285;50.894;5.462;2023-02-18T01:11:30;10.50;1.00
14401;DHT22;7285;50.894;5.462;2023-02-18T01:13:57;10.50;1.00
14401;DHT22;7285;50.894;5.462;2023-02-18T01:16:24;10.50;1.00
14401;DHT22;7285;50.894;5.462;2023-02-18T01:18:51;10.50;1.00
14401;DHT22;7285;50.894;5.462;2023-02-18T01:21:20;10.50;1.00
14401;DHT22;7285;50.894;5.462;2023-02-18T01:23:46;10.50;1.00
14401;DHT22;7285;50.894;5.462;2023-02-18T01:26:13;10.50;1.00
14401;DHT22;7285;50.894;5.462;2023-02-18T01:28:40;10.60;1.00
14401;DHT22;7285;50.894;5.462;2023-02-18T01:31:09;10.60;1.00
14401;DHT22;7285;50.894;5.462;2023-02-18T01:33:37;10.60;1.00
14401;DHT22;7285;50.894;5.462;2023-02-18T01:36:05;10.60;1.00
14401;DHT22;7285;50.894;5.462;2023-02-18T01:38:35;10.60;1.00
14401;DHT22;7285;50.894;5.462;2023-02-18T01:41:02;10.60;1.00
14401;DHT22;7285;50.894;5.462;2023-02-18T01:43:30;10.60;1.00
14401;DHT22;7285;50.894;5.462;2023-02-18T01:46:12;10.60;1.00
14401;DHT22;7285;50.894;5.462;2023-02-18T01:48:42;10.60;1.00
14401;DHT22;7285;50.894;5.462;2023-02-18T01:51:13;10.60;1.00
14401;DHT22;7285;50.894;5.462;2023-02-18T01:53:47;10.70;1.00
14401;DHT22;7285;50.894;5.462;2023-02-18T01:56:25;10.70;1.00
14401;DHT22;7285;50.894;5.462;2023-02-18T01:58:55;10.70;1.00
14401;DHT22;7285;50.894;5.462;2023-02-18T02:01:23;10.60;1.00
14401;DHT22;7285;50.894;5.462;2023-02-18T02:03:51;10.70;1.00
14401;DHT22;7285;50.894;5.462;2023-02-18T02:06:20;10.60;1.00
14401;DHT22;7285;50.894;5.462;2023-02-18T02:08:52;10.70;1.00
14401;DHT22;7285;50.894;5.462;2023-02-18T02:11:28;10.70;99.90
14401;DHT22;7285;50.894;5.462;2023-02-18T02:14:10;10.70;99.90
14401;DHT22;7285;50.894;5.462;2023-02-18T02:16:43;10.70;99.90
14401;DHT22;7285;50.894;5.462;2023-02-18T02:25:52;10.60;99.90
14401;DHT22;7285;50.894;5.462;2023-02-18T02:28:50;10.60;1.00
14401;DHT22;7285;50.894;5.462;2023-02-18T02:31:46;10.50;1.00
14401;DHT22;7285;50.894;5.462;2023-02-18T02:34:45;10.50;1.00
14401;DHT22;7285;50.894;5.462;2023-02-18T02:37:15;10.50;1.00
14401;DHT22;7285;50.894;5.462;2023-02-18T02:39:52;10.50;1.00
14401;DHT22;7285;50.894;5.462;2023-02-18T02:42:29;10.50;1.00
14401;DHT22;7285;50.894;5.462;2023-02-18T02:45:04;10.50;1.00
14401;DHT22;7285;50.894;5.462;2023-02-18T02:47:40;10.50;1.00
14401;DHT22;7285;50.894;5.462;2023-02-18T02:50:14;10.40;1.00
14401;DHT22;7285;50.894;5.462;2023-02-18T02:52:46;10.50;1.00
14401;DHT22;7285;50.894;5.462;2023-02-18T02:55:16;10.50;1.00
14401;DHT22;7285;50.894;5.462;2023-02-18T02:57:48;10.50;1.00
14401;DHT22;7285;50.894;5.462;2023-02-18T03:00:18;10.50;1.00
14401;DHT22;7285;50.894;5.462;2023-02-18T03:03:00;10.50;1.00
14401;DHT22;7285;50.894;5.462;2023-02-18T03:05:38;10.50;1.00
14401;DHT22;7285;50.894;5.462;2023-02-18T03:08:24;10.50;1.00
14401;DHT22;7285;50.894;5.462;2023-02-18T03:11:02;10.50;1.00
14401;DHT22;7285;50.894;5.462;2023-02-18T03:13:50;10.50;1.00
14401;DHT22;7285;50.894;5.462;2023-02-18T03:16:25;10.50;1.00
14401;DHT22;7285;50.894;5.462;2023-02-18T03:18:58;10.40;1.00
14401;DHT22;7285;50.894;5.462;2023-02-18T03:21:30;10.40;1.00
14401;DHT22;7285;50.894;5.462;2023-02-18T03:24:01;10.40;1.00
14401;DHT22;7285;50.894;5.462;2023-02-18T03:26:30;10.40;1.00
14401;DHT22;7285;50.894;5.462;2023-02-18T03:29:01;10.40;1.00
14401;DHT22;7285;50.894;5.462;2023-02-18T03:31:30;10.40;1.00
14401;DHT22;7285;50.894;5.462;2023-02-18T03:34:02;10.40;1.00
14401;DHT22;7285;50.894;5.462;2023-02-18T03:36:33;10.40;1.00
14401;DHT22;7285;50.894;5.462;2023-02-18T03:39:04;10.40;1.00
14401;DHT22;7285;50.894;5.462;2023-02-18T03:41:33;10.40;1.00
14401;DHT22;7285;50.894;5.462;2023-02-18T03:44:02;10.40;1.00
14401;DHT22;7285;50.894;5.462;2023-02-18T03:46:30;10.50;1.00
14401;DHT22;7285;50.894;5.462;2023-02-18T03:48:57;10.50;99.90
14401;DHT22;7285;50.894;5.462;2023-02-18T03:51:24;10.50;99.90
14401;DHT22;7285;50.894;5.462;2023-02-18T03:53:52;10.50;99.90
14401;DHT22;7285;50.894;5.462;2023-02-18T03:56:19;10.50;99.90
14401;DHT22;7285;50.894;5.462;2023-02-18T03:58:46;10.50;66.30
14401;DHT22;7285;50.894;5.462;2023-02-18T04:01:13;10.50;1.00
14401;DHT22;7285;50.894;5.462;2023-02-18T04:03:40;10.50;1.00
14401;DHT22;7285;50.894;5.462;2023-02-18T04:06:08;10.50;1.00
14401;DHT22;7285;50.894;5.462;2023-02-18T04:08:35;10.50;1.00
14401;DHT22;7285;50.894;5.462;2023-02-18T04:11:04;10.50;1.00
14401;DHT22;7285;50.894;5.462;2023-02-18T04:13:31;10.50;1.00
14401;DHT22;7285;50.894;5.462;2023-02-18T04:15:58;10.50;1.00
14401;DHT22;7285;50.894;5.462;2023-02-18T04:18:25;10.40;21.20
14401;DHT22;7285;50.894;5.462;2023-02-18T04:20:52;10.30;99.90
14401;DHT22;7285;50.894;5.462;2023-02-18T04:23:19;10.40;99.90
14401;DHT22;7285;50.894;5.462;2023-02-18T04:25:46;10.40;99.90
14401;DHT22;7285;50.894;5.462;2023-02-18T04:28:15;10.40;99.90
14401;DHT22;7285;50.894;5.462;2023-02-18T04:30:42;10.40;99.90
14401;DHT22;7285;50.894;5.462;2023-02-18T04:33:10;10.40;99.90
14401;DHT22;7285;50.894;5.462;2023-02-18T04:35:36;10.40;99.90
14401;DHT22;7285;50.894;5.462;2023-02-18T04:38:05;10.30;99.90
14401;DHT22;7285;50.894;5.462;2023-02-18T04:40:32;10.30;99.90
14401;DHT22;7285;50.894;5.462;2023-02-18T04:42:59;10.30;99.90
14401;DHT22;7285;50.894;5.462;2023-02-18T04:45:28;10.30;99.90
14401;DHT22;7285;50.894;5.462;2023-02-18T04:47:55;10.40;99.90
14401;DHT22;7285;50.894;5.462;2023-02-18T04:50:22;10.40;67.20
14401;DHT22;7285;50.894;5.462;2023-02-18T04:52:49;10.40;1.00
14401;DHT22;7285;50.894;5.462;2023-02-18T04:55:16;10.40;1.00
14401;DHT22;7285;50.894;5.462;2023-02-18T04:57:43;10.50;1.00
14401;DHT22;7285;50.894;5.462;2023-02-18T05:00:14;10.50;99.90
14401;DHT22;7285;50.894;5.462;2023-02-18T05:02:43;10.50;1.00
14401;DHT22;7285;50.894;5.462;2023-02-18T05:05:10;10.50;1.00
14401;DHT22;7285;50.894;5.462;2023-02-18T05:07:38;10.50;99.90
14401;DHT22;7285;50.894;5.462;2023-02-18T05:10:08;10.50;99.90
14401;DHT22;7285;50.894;5.462;2023-02-18T05:12:35;10.50;1.00
14401;DHT22;7285;50.894;5.462;2023-02-18T05:15:02;10.60;1.00
14401;DHT22;7285;50.894;5.462;2023-02-18T05:17:29;10.50;1.00
14401;DHT22;7285;50.894;5.462;2023-02-18T05:19:57;10.50;99.90
14401;DHT22;7285;50.894;5.462;2023-02-18T05:22:24;10.50;1.00
14401;DHT22;7285;50.894;5.462;2023-02-18T05:24:51;10.50;1.00
14401;DHT22;7285;50.894;5.462;2023-02-18T05:27:18;10.50;1.00
14401;DHT22;7285;50.894;5.462;2023-02-18T05:29:45;10.50;1.00
14401;DHT22;7285;50.894;5.462;2023-02-18T05:32:12;10.50;99.90
14401;DHT22;7285;50.894;5.462;2023-02-18T05:34:39;10.50;1.00
14401;DHT22;7285;50.894;5.462;2023-02-18T05:37:07;10.50;99.90
14401;DHT22;7285;50.894;5.462;2023-02-18T05:39:34;10.50;99.90
14401;DHT22;7285;50.894;5.462;2023-02-18T05:42:01;10.50;1.00
14401;DHT22;7285;50.894;5.462;2023-02-18T05:44:28;10.40;1.00
14401;DHT22;7285;50.894;5.462;2023-02-18T05:46:59;10.40;1.00
14401;DHT22;7285;50.894;5.462;2023-02-18T05:49:26;10.40;1.00
14401;DHT22;7285;50.894;5.462;2023-02-18T05:51:53;10.40;1.00
14401;DHT22;7285;50.894;5.462;2023-02-18T05:54:21;10.40;1.00
14401;DHT22;7285;50.894;5.462;2023-02-18T05:56:48;10.30;1.00
14401;DHT22;7285;50.894;5.462;2023-02-18T05:59:15;10.30;1.00
14401;DHT22;7285;50.894;5.462;2023-02-18T06:01:43;10.30;99.90
14401;DHT22;7285;50.894;5.462;2023-02-18T06:04:10;10.30;99.90
14401;DHT22;7285;50.894;5.462;2023-02-18T06:06:37;10.30;1.00
14401;DHT22;7285;50.894;5.462;2023-02-18T06:09:05;10.30;1.00
14401;DHT22;7285;50.894;5.462;2023-02-18T06:11:33;10.30;99.90
14401;DHT22;7285;50.894;5.462;2023-02-18T06:14:01;10.20;1.00
14401;DHT22;7285;50.894;5.462;2023-02-18T06:16:28;10.20;1.00
14401;DHT22;7285;50.894;5.462;2023-02-18T06:18:55;10.20;1.00
14401;DHT22;7285;50.894;5.462;2023-02-18T06:21:22;10.20;1.00
14401;DHT22;7285;50.894;5.462;2023-02-18T06:23:49;10.20;1.00
14401;DHT22;7285;50.894;5.462;2023-02-18T06:26:16;10.20;1.00
14401;DHT22;7285;50.894;5.462;2023-02-18T06:28:44;10.20;1.00
14401;DHT22;7285;50.894;5.462;2023-02-18T06:31:11;10.10;1.00
14401;DHT22;7285;50.894;5.462;2023-02-18T06:33:38;10.10;1.00
14401;DHT22;7285;50.894;5.462;2023-02-18T06:36:07;10.10;99.90
14401;DHT22;7285;50.894;5.462;2023-02-18T06:38:36;10.10;99.90
14401;DHT22;7285;50.894;5.462;2023-02-18T06:41:03;10.10;99.90
14401;DHT22;7285;50.894;5.462;2023-02-18T06:43:30;10.10;99.90
14401;DHT22;7285;50.894;5.462;2023-02-18T06:45:59;10.10;12.40
14401;DHT22;7285;50.894;5.462;2023-02-18T06:48:26;10.00;1.00
14401;DHT22;7285;50.894;5.462;2023-02-18T06:50:53;10.00;76.20
14401;DHT22;7285;50.894;5.462;2023-02-18T06:53:20;10.00;99.90
14401;DHT22;7285;50.894;5.462;2023-02-18T06:55:47;10.00;1.00
14401;DHT22;7285;50.894;5.462;2023-02-18T06:58:15;10.00;99.90
14401;DHT22;7285;50.894;5.462;2023-02-18T07:00:42;9.90;99.90
14401;DHT22;7285;50.894;5.462;2023-02-18T07:03:12;9.90;1.00
14401;DHT22;7285;50.894;5.462;2023-02-18T07:05:39;9.90;1.00
14401;DHT22;7285;50.894;5.462;2023-02-18T07:08:06;9.90;99.90
14401;DHT22;7285;50.894;5.462;2023-02-18T07:10:33;9.90;1.00
14401;DHT22;7285;50.894;5.462;2023-02-18T07:13:00;9.90;1.00
14401;DHT22;7285;50.894;5.462;2023-02-18T07:15:27;10.00;1.00
14401;DHT22;7285;50.894;5.462;2023-02-18T07:17:54;9.90;99.90
14401;DHT22;7285;50.894;5.462;2023-02-18T07:20:23;9.90;99.90
14401;DHT22;7285;50.894;5.462;2023-02-18T07:22:50;9.90;99.90
14401;DHT22;7285;50.894;5.462;2023-02-18T07:25:17;9.90;99.90
14401;DHT22;7285;50.894;5.462;2023-02-18T07:27:44;9.80;99.90
14401;DHT22;7285;50.894;5.462;2023-02-18T07:30:12;9.80;1.00
14401;DHT22;7285;50.894;5.462;2023-02-18T07:32:39;9.80;1.00
14401;DHT22;7285;50.894;5.462;2023-02-18T07:35:07;9.70;1.00
14401;DHT22;7285;50.894;5.462;2023-02-18T07:37:35;9.70;1.00
14401;DHT22;7285;50.894;5.462;2023-02-18T07:40:02;9.70;99.90
14401;DHT22;7285;50.894;5.462;2023-02-18T07:42:29;9.70;1.00
14401;DHT22;7285;50.894;5.462;2023-02-18T07:44:56;9.80;1.00
14401;DHT22;7285;50.894;5.462;2023-02-18T07:47:24;9.80;1.00
14401;DHT22;7285;50.894;5.462;2023-02-18T07:49:50;9.80;1.00
14401;DHT22;7285;50.894;5.462;2023-02-18T07:52:17;9.80;1.00
14401;DHT22;7285;50.894;5.462;2023-02-18T07:54:46;9.80;1.00
14401;DHT22;7285;50.894;5.462;2023-02-18T07:57:13;9.80;1.00
14401;DHT22;7285;50.894;5.462;2023-02-18T07:59:40;9.80;99.90
14401;DHT22;7285;50.894;5.462;2023-02-18T08:02:13;9.80;99.90
14401;DHT22;7285;50.894;5.462;2023-02-18T08:04:43;9.80;99.90
14401;DHT22;7285;50.894;5.462;2023-02-18T08:07:12;9.80;99.90
14401;DHT22;7285;50.894;5.462;2023-02-18T08:09:39;9.80;99.90
14401;DHT22;7285;50.894;5.462;2023-02-18T08:12:08;9.80;99.90
14401;DHT22;7285;50.894;5.462;2023-02-18T08:14:35;9.80;99.90
14401;DHT22;7285;50.894;5.462;2023-02-18T08:17:02;9.90;99.90
14401;DHT22;7285;50.894;5.462;2023-02-18T08:19:29;9.90;99.90
14401;DHT22;7285;50.894;5.462;2023-02-18T08:21:56;9.90;1.00
14401;DHT22;7285;50.894;5.462;2023-02-18T08:24:26;9.90;1.00
14401;DHT22;7285;50.894;5.462;2023-02-18T08:26:53;9.90;94.60
14401;DHT22;7285;50.894;5.462;2023-02-18T08:29:21;9.90;93.70
14401;DHT22;7285;50.894;5.462;2023-02-18T08:31:48;9.90;1.00
14401;DHT22;7285;50.894;5.462;2023-02-18T08:34:17;9.80;1.00
14401;DHT22;7285;50.894;5.462;2023-02-18T08:36:43;9.80;1.00
14401;DHT22;7285;50.894;5.462;2023-02-18T08:39:10;9.90;99.90
14401;DHT22;7285;50.894;5.462;2023-02-18T08:41:37;9.90;99.90
14401;DHT22;7285;50.894;5.462;2023-02-18T08:44:04;9.90;99.90
14401;DHT22;7285;50.894;5.462;2023-02-18T08:46:33;10.00;1.00
14401;DHT22;7285;50.894;5.462;2023-02-18T08:48:59;10.00;1.00
14401;DHT22;7285;50.894;5.462;2023-02-18T08:51:26;10.10;99.90
14401;DHT22;7285;50.894;5.462;2023-02-18T08:53:54;10.20;20.80
14401;DHT22;7285;50.894;5.462;2023-02-18T08:56:21;10.20;1.00
14401;DHT22;7285;50.894;5.462;2023-02-18T08:58:48;10.30;1.00
14401;DHT22;7285;50.894;5.462;2023-02-18T09:01:15;10.30;1.00
14401;DHT22;7285;50.894;5.462;2023-02-18T09:03:43;10.30;99.90
14401;DHT22;7285;50.894;5.462;2023-02-18T09:06:10;10.30;1.00
14401;DHT22;7285;50.894;5.462;2023-02-18T09:08:37;10.40;99.90
14401;DHT22;7285;50.894;5.462;2023-02-18T09:11:04;10.40;1.00
14401;DHT22;7285;50.894;5.462;2023-02-18T09:13:33;10.50;99.90
14401;DHT22;7285;50.894;5.462;2023-02-18T09:16:01;10.50;1.00
14401;DHT22;7285;50.894;5.462;2023-02-18T09:18:29;10.50;44.50
14401;DHT22;7285;50.894;5.462;2023-02-18T09:20:58;10.50;1.00
14401;DHT22;7285;50.894;5.462;2023-02-18T09:23:27;10.60;1.00
14401;DHT22;7285;50.894;5.462;2023-02-18T09:25:54;10.70;1.00
14401;DHT22;7285;50.894;5.462;2023-02-18T09:28:22;10.70;1.00
14401;DHT22;7285;50.894;5.462;2023-02-18T09:30:49;10.70;1.00
14401;DHT22;7285;50.894;5.462;2023-02-18T09:33:17;10.70;1.00
14401;DHT22;7285;50.894;5.462;2023-02-18T09:35:45;10.70;1.00
14401;DHT22;7285;50.894;5.462;2023-02-18T09:38:15;10.70;1.00
14401;DHT22;7285;50.894;5.462;2023-02-18T09:40:43;10.70;1.00
14401;DHT22;7285;50.894;5.462;2023-02-18T09:43:18;10.70;1.00
14401;DHT22;7285;50.894;5.462;2023-02-18T09:45:49;10.70;46.50
14401;DHT22;7285;50.894;5.462;2023-02-18T09:48:17;10.70;1.00
14401;DHT22;7285;50.894;5.462;2023-02-18T09:50:46;10.70;1.00
14401;DHT22;7285;50.894;5.462;2023-02-18T09:53:17;10.70;1.00
14401;DHT22;7285;50.894;5.462;2023-02-18T09:55:44;10.70;1.00
14401;DHT22;7285;50.894;5.462;2023-02-18T09:58:15;10.60;99.90
14401;DHT22;7285;50.894;5.462;2023-02-18T10:00:45;10.70;99.90
14401;DHT22;7285;50.894;5.462;2023-02-18T10:03:16;10.70;99.90
14401;DHT22;7285;50.894;5.462;2023-02-18T10:05:51;10.70;99.90
14401;DHT22;7285;50.894;5.462;2023-02-18T10:08:23;10.60;1.00
14401;DHT22;7285;50.894;5.462;2023-02-18T10:10:51;10.60;1.00
14401;DHT22;7285;50.894;5.462;2023-02-18T10:13:20;10.60;1.00
14401;DHT22;7285;50.894;5.462;2023-02-18T10:15:49;10.60;1.00
14401;DHT22;7285;50.894;5.462;2023-02-18T10:18:26;10.60;1.00
14401;DHT22;7285;50.894;5.462;2023-02-18T10:21:00;10.60;1.00
14401;DHT22;7285;50.894;5.462;2023-02-18T10:23:33;10.60;99.90
14401;DHT22;7285;50.894;5.462;2023-02-18T10:26:03;10.50;99.90
14401;DHT22;7285;50.894;5.462;2023-02-18T10:28:31;10.50;99.90
14401;DHT22;7285;50.894;5.462;2023-02-18T10:31:04;10.50;1.00
14401;DHT22;7285;50.894;5.462;2023-02-18T10:33:34;10.50;1.00
14401;DHT22;7285;50.894;5.462;2023-02-18T10:36:20;10.50;1.00
14401;DHT22;7285;50.894;5.462;2023-02-18T10:39:06;10.50;1.00
14401;DHT22;7285;50.894;5.462;2023-02-18T10:41:40;10.50;74.50
14401;DHT22;7285;50.894;5.462;2023-02-18T10:44:17;10.50;1.00
14401;DHT22;7285;50.894;5.462;2023-02-18T10:46:58;10.30;99.90
14401;DHT22;7285;50.894;5.462;2023-02-18T10:49:47;10.20;1.00
14401;DHT22;7285;50.894;5.462;2023-02-18T10:52:17;10.10;99.90
14401;DHT22;7285;50.894;5.462;2023-02-18T10:54:52;10.10;99.90
14401;DHT22;7285;50.894;5.462;2023-02-18T10:57:21;10.10;1.00
14401;DHT22;7285;50.894;5.462;2023-02-18T10:59:58;10.20;99.90
14401;DHT22;7285;50.894;5.462;2023-02-18T11:02:27;10.20;1.00
14401;DHT22;7285;50.894;5.462;2023-02-18T11:04:57;10.20;1.00
14401;DHT22;7285;50.894;5.462;2023-02-18T11:07:29;10.30;1.00
14401;DHT22;7285;50.894;5.462;2023-02-18T11:10:00;10.30;99.90
14401;DHT22;7285;50.894;5.462;2023-02-18T11:12:29;10.30;99.90
14401;DHT22;7285;50.894;5.462;2023-02-18T11:15:06;10.40;99.90
14401;DHT22;7285;50.894;5.462;2023-02-18T11:17:34;10.40;1.00
14401;DHT22;7285;50.894;5.462;2023-02-18T11:20:28;10.40;99.90
14401;DHT22;7285;50.894;5.462;2023-02-18T11:23:15;10.30;1.00
14401;DHT22;7285;50.894;5.462;2023-02-18T11:25:55;10.20;1.00
14401;DHT22;7285;50.894;5.462;2023-02-18T11:28:41;10.20;99.90
14401;DHT22;7285;50.894;5.462;2023-02-18T11:31:11;10.20;99.90
14401;DHT22;7285;50.894;5.462;2023-02-18T11:33:43;10.20;1.00
14401;DHT22;7285;50.894;5.462;2023-02-18T11:36:19;10.20;1.00
14401;DHT22;7285;50.894;5.462;2023-02-18T11:38:50;10.10;99.90
14401;DHT22;7285;50.894;5.462;2023-02-18T11:41:21;10.20;1.00
14401;DHT22;7285;50.894;5.462;2023-02-18T11:43:55;10.20;84.80
14401;DHT22;7285;50.894;5.462;2023-02-18T11:46:24;10.30;64.80
14401;DHT22;7285;50.894;5.462;2023-02-18T11:48:51;10.30;99.90
14401;DHT22;7285;50.894;5.462;2023-02-18T11:51:20;10.30;1.00
14401;DHT22;7285;50.894;5.462;2023-02-18T11:54:00;10.40;99.90
14401;DHT22;7285;50.894;5.462;2023-02-18T11:56:31;10.50;1.00
14401;DHT22;7285;50.894;5.462;2023-02-18T11:58:59;10.50;99.90
14401;DHT22;7285;50.894;5.462;2023-02-18T12:01:40;10.50;1.00
14401;DHT22;7285;50.894;5.462;2023-02-18T12:04:12;10.40;1.00
14401;DHT22;7285;50.894;5.462;2023-02-18T12:06:47;10.40;1.00
14401;DHT22;7285;50.894;5.462;2023-02-18T12:09:21;10.40;1.00
14401;DHT22;7285;50.894;5.462;2023-02-18T12:11:53;10.30;1.00
14401;DHT22;7285;50.894;5.462;2023-02-18T12:14:22;10.30;1.00
14401;DHT22;7285;50.894;5.462;2023-02-18T12:20:17;10.20;53.00
14401;DHT22;7285;50.894;5.462;2023-02-18T12:22:50;10.20;1.00
14401;DHT22;7285;50.894;5.462;2023-02-18T12:25:31;10.10;1.00
14401;DHT22;7285;50.894;5.462;2023-02-18T12:28:21;10.10;99.90
14401;DHT22;7285;50.894;5.462;2023-02-18T12:31:08;10.10;99.90
14401;DHT22;7285;50.894;5.462;2023-02-18T12:33:49;10.00;1.00
14401;DHT22;7285;50.894;5.462;2023-02-18T12:36:26;10.00;1.00
14401;DHT22;7285;50.894;5.462;2023-02-18T12:39:08;10.00;1.00
14401;DHT22;7285;50.894;5.462;2023-02-18T12:41:58;10.00;1.00
14401;DHT22;7285;50.894;5.462;2023-02-18T12:44:36;10.00;1.00
14401;DHT22;7285;50.894;5.462;2023-02-18T12:47:30;10.00;1.00
14401;DHT22;7285;50.894;5.462;2023-02-18T12:53:05;10.10;1.00
14401;DHT22;7285;50.894;5.462;2023-02-18T12:55:45;10.10;1.00
14401;DHT22;7285;50.894;5.462;2023-02-18T12:58:26;10.00;1.00
14401;DHT22;7285;50.894;5.462;2023-02-18T13:01:06;10.10;1.00
14401;DHT22;7285;50.894;5.462;2023-02-18T13:10:08;10.10;1.00
14401;DHT22;7285;50.894;5.462;2023-02-18T13:12:40;10.10;1.00
14401;DHT22;7285;50.894;5.462;2023-02-18T13:15:16;10.20;1.00
14401;DHT22;7285;50.894;5.462;2023-02-18T13:17:46;10.20;1.00
14401;DHT22;7285;50.894;5.462;2023-02-18T13:20:19;10.20;1.00
14401;DHT22;7285;50.894;5.462;2023-02-18T13:22:47;10.10;1.00
14401;DHT22;7285;50.894;5.462;2023-02-18T13:25:16;10.10;1.00
14401;DHT22;7285;50.894;5.462;2023-02-18T13:27:49;10.20;1.00
14401;DHT22;7285;50.894;5.462;2023-02-18T13:30:24;10.20;1.00
14401;DHT22;7285;50.894;5.462;2023-02-18T13:33:04;10.20;5.80
14401;DHT22;7285;50.894;5.462;2023-02-18T13:35:36;10.20;1.00
14401;DHT22;7285;50.894;5.462;2023-02-18T13:38:18;10.30;11.30
14401;DHT22;7285;50.894;5.462;2023-02-18T13:40:46;10.30;9.30
14401;DHT22;7285;50.894;5.462;2023-02-18T13:43:19;10.30;23.90
14401;DHT22;7285;50.894;5.462;2023-02-18T13:46:01;10.30;36.80
14401;DHT22;7285;50.894;5.462;2023-02-18T13:48:33;10.50;66.60
14401;DHT22;7285;50.894;5.462;2023-02-18T13:51:02;10.40;49.30
14401;DHT22;7285;50.894;5.462;2023-02-18T13:53:31;10.50;59.20
14401;DHT22;7285;50.894;5.462;2023-02-18T13:56:03;10.50;59.50
14401;DHT22;7285;50.894;5.462;2023-02-18T13:58:40;10.40;25.00
14401;DHT22;7285;50.894;5.462;2023-02-18T14:01:20;10.40;37.20
14401;DHT22;7285;50.894;5.462;2023-02-18T14:03:58;10.40;32.00
14401;DHT22;7285;50.894;5.462;2023-02-18T14:06:28;10.40;37.50
14401;DHT22;7285;50.894;5.462;2023-02-18T14:11:54;10.50;58.40
14401;DHT22;7285;50.894;5.462;2023-02-18T14:14:39;10.40;67.30
14401;DHT22;7285;50.894;5.462;2023-02-18T14:17:34;10.40;73.00
14401;DHT22;7285;50.894;5.462;2023-02-18T14:23:39;10.40;91.30
14401;DHT22;7285;50.894;5.462;2023-02-18T14:26:08;10.40;91.50
14401;DHT22;7285;50.894;5.462;2023-02-18T14:28:42;10.40;99.90
14401;DHT22;7285;50.894;5.462;2023-02-18T14:37:53;10.30;99.90
14401;DHT22;7285;50.894;5.462;2023-02-18T14:43:57;10.30;99.90
14401;DHT22;7285;50.894;5.462;2023-02-18T14:46:34;10.30;99.90
14401;DHT22;7285;50.894;5.462;2023-02-18T14:52:21;10.30;99.90
14401;DHT22;7285;50.894;5.462;2023-02-18T14:54:48;10.30;99.90
14401;DHT22;7285;50.894;5.462;2023-02-18T14:57:17;10.30;99.90
14401;DHT22;7285;50.894;5.462;2023-02-18T14:59:47;10.20;99.90
14401;DHT22;7285;50.894;5.462;2023-02-18T15:02:20;10.30;99.90
14401;DHT22;7285;50.894;5.462;2023-02-18T15:04:47;10.30;99.90
14401;DHT22;7285;50.894;5.462;2023-02-18T15:07:18;10.30;99.90
14401;DHT22;7285;50.894;5.462;2023-02-18T15:09:46;10.20;99.90
14401;DHT22;7285;50.894;5.462;2023-02-18T15:12:16;10.20;99.90
14401;DHT22;7285;50.894;5.462;2023-02-18T15:14:47;10.20;99.90
14401;DHT22;7285;50.894;5.462;2023-02-18T15:17:17;10.20;99.90
14401;DHT22;7285;50.894;5.462;2023-02-18T15:19:48;10.30;99.90
14401;DHT22;7285;50.894;5.462;2023-02-18T15:22:18;10.20;99.90
14401;DHT22;7285;50.894;5.462;2023-02-18T15:24:46;10.20;99.90
14401;DHT22;7285;50.894;5.462;2023-02-18T15:27:16;10.30;99.90
14401;DHT22;7285;50.894;5.462;2023-02-18T15:29:50;10.30;99.90
14401;DHT22;7285;50.894;5.462;2023-02-18T15:32:19;10.30;99.90
14401;DHT22;7285;50.894;5.462;2023-02-18T15:34:49;10.30;99.90
14401;DHT22;7285;50.894;5.462;2023-02-18T15:37:16;10.30;99.90
14401;DHT22;7285;50.894;5.462;2023-02-18T15:39:44;10.30;99.90
14401;DHT22;7285;50.894;5.462;2023-02-18T15:42:22;10.30;99.90
14401;DHT22;7285;50.894;5.462;2023-02-18T15:44:55;10.30;99.90
14401;DHT22;7285;50.894;5.462;2023-02-18T15:47:22;10.30;99.90
14401;DHT22;7285;50.894;5.462;2023-02-18T15:49:52;10.20;99.90
14401;DHT22;7285;50.894;5.462;2023-02-18T15:52:23;10.20;99.90
14401;DHT22;7285;50.894;5.462;2023-02-18T15:54:50;10.30;99.90
14401;DHT22;7285;50.894;5.462;2023-02-18T15:57:19;10.20;99.90
14401;DHT22;7285;50.894;5.462;2023-02-18T16:00:04;10.30;99.90
14401;DHT22;7285;50.894;5.462;2023-02-18T16:02:32;10.30;99.90
14401;DHT22;7285;50.894;5.462;2023-02-18T16:05:01;10.30;99.90
14401;DHT22;7285;50.894;5.462;2023-02-18T16:07:30;10.30;99.90
14401;DHT22;7285;50.894;5.462;2023-02-18T16:10:20;10.30;99.90
14401;DHT22;7285;50.894;5.462;2023-02-18T16:12:50;10.30;99.90
14401;DHT22;7285;50.894;5.462;2023-02-18T16:15:23;10.20;99.90
14401;DHT22;7285;50.894;5.462;2023-02-18T16:17:51;10.30;99.90
14401;DHT22;7285;50.894;5.462;2023-02-18T16:20:26;10.30;99.90
14401;DHT22;7285;50.894;5.462;2023-02-18T16:22:59;10.30;99.90
14401;DHT22;7285;50.894;5.462;2023-02-18T16:25:38;10.30;99.90
14401;DHT22;7285;50.894;5.462;2023-02-18T16:28:12;10.30;99.90
14401;DHT22;7285;50.894;5.462;2023-02-18T16:30:42;10.30;99.90
14401;DHT22;7285;50.894;5.462;2023-02-18T16:33:10;10.30;99.90
14401;DHT22;7285;50.894;5.462;2023-02-18T16:35:38;10.20;99.90
14401;DHT22;7285;50.894;5.462;2023-02-18T16:38:05;10.20;99.90
14401;DHT22;7285;50.894;5.462;2023-02-18T16:40:33;10.20;99.90
14401;DHT22;7285;50.894;5.462;2023-02-18T16:43:05;10.20;99.90
14401;DHT22;7285;50.894;5.462;2023-02-18T16:45:34;10.20;99.90
14401;DHT22;7285;50.894;5.462;2023-02-18T16:48:03;10.20;99.90
14401;DHT22;7285;50.894;5.462;2023-02-18T16:50:32;10.20;98.90
14401;DHT22;7285;50.894;5.462;2023-02-18T16:53:00;10.20;93.60
14401;DHT22;7285;50.894;5.462;2023-02-18T16:55:29;10.20;85.80
14401;DHT22;7285;50.894;5.462;2023-02-18T16:57:56;10.20;91.00